Plano, Iowa
Current Conditions -  °F | °C
As of 3:30 AM on Saturday 20 Dec 2014 (Local Time) from KTVK Reporting Station
Haze Haze  
Wind Chill: 26°   Ceiling: 100
Heat Index: 32°   Visibility: 1mi
Dew Point: 32°   Wind: 6mph
Humidity: 100%   Direction: 140°SE
Pressure: 30.2"   Gusts: NA
Location:  40.76°N, 93.05°W
Report Text: KTVK 200930Z AUTO 14005KT 1SM BR OVC001 00/00 A3020 RMK AO2
Loading
Personal Weather Stations






























Interactive Weather Map New forecast layout! Learn more

10-Day Weather Forecast

Advertisements
Track Severe Weather on mobile